Terminal Aerodrome Forecast
Issued by NWS

Home | Current Version | Previous Version | Graphics & Text | Print | Product List | Glossary On
Versions: 1 2 3 4 5 6 7 8 9 10 11 12 13 14 15 16 17 18
029
FTUS43 KUNR 122320
TAFGCC
TAF
KGCC 122320Z 1300/1324 25010KT P6SM SCT200
     FM130700 31022G32KT P6SM SCT200
     FM132200 30017KT P6SM SCT100=

USA.gov is the U.S. government's official web portal to all federal, state and local government web resources and services.